sensor_id;sensor_type;location;lat;lon;timestamp;temperature;humidity
11239;DHT22;5677;48.488;13.436;2022-08-20T00:01:37;23.70;61.30
11239;DHT22;5677;48.488;13.436;2022-08-20T00:04:06;23.70;61.30
11239;DHT22;5677;48.488;13.436;2022-08-20T00:06:34;23.70;61.20
11239;DHT22;5677;48.488;13.436;2022-08-20T00:09:03;23.70;61.20
11239;DHT22;5677;48.488;13.436;2022-08-20T00:11:32;23.60;61.20
11239;DHT22;5677;48.488;13.436;2022-08-20T00:14:03;23.60;61.10
11239;DHT22;5677;48.488;13.436;2022-08-20T00:16:37;23.60;61.10
11239;DHT22;5677;48.488;13.436;2022-08-20T00:19:09;23.60;61.00
11239;DHT22;5677;48.488;13.436;2022-08-20T00:21:38;23.70;61.10
11239;DHT22;5677;48.488;13.436;2022-08-20T00:24:08;23.60;61.00
11239;DHT22;5677;48.488;13.436;2022-08-20T00:26:37;23.60;61.00
11239;DHT22;5677;48.488;13.436;2022-08-20T00:29:06;23.60;60.90
11239;DHT22;5677;48.488;13.436;2022-08-20T00:31:34;23.60;60.90
11239;DHT22;5677;48.488;13.436;2022-08-20T00:34:06;23.70;61.00
11239;DHT22;5677;48.488;13.436;2022-08-20T00:36:34;23.60;60.90
11239;DHT22;5677;48.488;13.436;2022-08-20T00:39:03;23.60;60.90
11239;DHT22;5677;48.488;13.436;2022-08-20T00:41:32;23.70;61.00
11239;DHT22;5677;48.488;13.436;2022-08-20T00:44:08;23.60;60.80
11239;DHT22;5677;48.488;13.436;2022-08-20T00:46:45;23.60;60.80
11239;DHT22;5677;48.488;13.436;2022-08-20T00:49:16;23.60;61.60
11239;DHT22;5677;48.488;13.436;2022-08-20T00:51:53;23.60;60.80
11239;DHT22;5677;48.488;13.436;2022-08-20T00:54:28;23.60;60.80
11239;DHT22;5677;48.488;13.436;2022-08-20T00:57:04;23.60;60.70
11239;DHT22;5677;48.488;13.436;2022-08-20T00:59:38;23.60;60.70
11239;DHT22;5677;48.488;13.436;2022-08-20T01:02:12;23.60;60.70
11239;DHT22;5677;48.488;13.436;2022-08-20T01:04:43;23.60;60.70
11239;DHT22;5677;48.488;13.436;2022-08-20T01:07:14;23.60;60.70
11239;DHT22;5677;48.488;13.436;2022-08-20T01:09:46;23.60;60.70
11239;DHT22;5677;48.488;13.436;2022-08-20T01:12:16;23.60;60.60
11239;DHT22;5677;48.488;13.436;2022-08-20T01:14:48;23.60;60.70
11239;DHT22;5677;48.488;13.436;2022-08-20T01:17:20;23.60;60.60
11239;DHT22;5677;48.488;13.436;2022-08-20T01:19:54;23.60;60.60
11239;DHT22;5677;48.488;13.436;2022-08-20T01:22:31;23.60;60.60
11239;DHT22;5677;48.488;13.436;2022-08-20T01:25:29;23.60;60.60
11239;DHT22;5677;48.488;13.436;2022-08-20T01:28:09;23.60;60.50
11239;DHT22;5677;48.488;13.436;2022-08-20T01:30:39;23.60;60.60
11239;DHT22;5677;48.488;13.436;2022-08-20T01:33:08;23.60;60.50
11239;DHT22;5677;48.488;13.436;2022-08-20T01:35:38;23.60;60.50
11239;DHT22;5677;48.488;13.436;2022-08-20T01:38:09;23.60;60.50
11239;DHT22;5677;48.488;13.436;2022-08-20T01:40:51;23.60;60.50
11239;DHT22;5677;48.488;13.436;2022-08-20T01:43:39;23.60;60.50
11239;DHT22;5677;48.488;13.436;2022-08-20T01:46:08;23.60;60.50
11239;DHT22;5677;48.488;13.436;2022-08-20T01:48:39;23.60;60.50
11239;DHT22;5677;48.488;13.436;2022-08-20T01:51:11;23.60;60.50
11239;DHT22;5677;48.488;13.436;2022-08-20T01:53:43;23.60;60.40
11239;DHT22;5677;48.488;13.436;2022-08-20T01:56:18;23.60;61.20
11239;DHT22;5677;48.488;13.436;2022-08-20T01:58:51;23.60;60.40
11239;DHT22;5677;48.488;13.436;2022-08-20T02:01:25;23.50;60.40
11239;DHT22;5677;48.488;13.436;2022-08-20T02:03:55;23.60;60.40
11239;DHT22;5677;48.488;13.436;2022-08-20T02:06:26;23.50;60.40
11239;DHT22;5677;48.488;13.436;2022-08-20T02:08:56;23.50;60.40
11239;DHT22;5677;48.488;13.436;2022-08-20T02:11:30;23.50;60.40
11239;DHT22;5677;48.488;13.436;2022-08-20T02:14:00;23.60;60.30
11239;DHT22;5677;48.488;13.436;2022-08-20T02:16:33;23.50;60.40
11239;DHT22;5677;48.488;13.436;2022-08-20T02:19:08;23.50;60.30
11239;DHT22;5677;48.488;13.436;2022-08-20T02:21:40;23.50;60.30
11239;DHT22;5677;48.488;13.436;2022-08-20T02:24:12;23.50;60.30
11239;DHT22;5677;48.488;13.436;2022-08-20T02:26:43;23.50;60.30
11239;DHT22;5677;48.488;13.436;2022-08-20T02:29:13;23.50;60.40
11239;DHT22;5677;48.488;13.436;2022-08-20T02:31:44;23.50;61.20
11239;DHT22;5677;48.488;13.436;2022-08-20T02:34:14;23.50;60.30
11239;DHT22;5677;48.488;13.436;2022-08-20T02:36:42;23.50;60.30
11239;DHT22;5677;48.488;13.436;2022-08-20T02:39:12;23.50;60.20
11239;DHT22;5677;48.488;13.436;2022-08-20T02:41:42;23.50;60.20
11239;DHT22;5677;48.488;13.436;2022-08-20T02:44:12;23.50;60.20
11239;DHT22;5677;48.488;13.436;2022-08-20T02:46:40;23.50;60.20
11239;DHT22;5677;48.488;13.436;2022-08-20T02:49:09;23.50;60.30
11239;DHT22;5677;48.488;13.436;2022-08-20T02:51:37;23.50;60.30
11239;DHT22;5677;48.488;13.436;2022-08-20T02:54:06;23.50;60.20
11239;DHT22;5677;48.488;13.436;2022-08-20T02:56:34;23.50;60.20
11239;DHT22;5677;48.488;13.436;2022-08-20T02:59:04;23.50;60.30
11239;DHT22;5677;48.488;13.436;2022-08-20T03:01:33;23.50;60.60
11239;DHT22;5677;48.488;13.436;2022-08-20T03:04:04;23.50;60.20
11239;DHT22;5677;48.488;13.436;2022-08-20T03:06:32;23.50;60.20
11239;DHT22;5677;48.488;13.436;2022-08-20T03:09:01;23.50;60.20
11239;DHT22;5677;48.488;13.436;2022-08-20T03:11:33;23.50;60.20
11239;DHT22;5677;48.488;13.436;2022-08-20T03:14:03;23.50;60.20
11239;DHT22;5677;48.488;13.436;2022-08-20T03:16:32;23.50;60.30
11239;DHT22;5677;48.488;13.436;2022-08-20T03:19:00;23.50;60.20
11239;DHT22;5677;48.488;13.436;2022-08-20T03:21:30;23.50;60.20
11239;DHT22;5677;48.488;13.436;2022-08-20T03:23:58;23.50;60.20
11239;DHT22;5677;48.488;13.436;2022-08-20T03:26:27;23.50;60.20
11239;DHT22;5677;48.488;13.436;2022-08-20T03:28:55;23.50;60.20
11239;DHT22;5677;48.488;13.436;2022-08-20T03:31:27;23.50;60.20
11239;DHT22;5677;48.488;13.436;2022-08-20T03:33:56;23.50;60.20
11239;DHT22;5677;48.488;13.436;2022-08-20T03:36:26;23.50;60.20
11239;DHT22;5677;48.488;13.436;2022-08-20T03:38:56;23.50;60.20
11239;DHT22;5677;48.488;13.436;2022-08-20T03:41:26;23.40;60.10
11239;DHT22;5677;48.488;13.436;2022-08-20T03:43:57;23.50;60.20
11239;DHT22;5677;48.488;13.436;2022-08-20T03:46:27;23.50;60.20
11239;DHT22;5677;48.488;13.436;2022-08-20T03:48:56;23.40;60.10
11239;DHT22;5677;48.488;13.436;2022-08-20T03:51:24;23.50;60.10
11239;DHT22;5677;48.488;13.436;2022-08-20T03:53:54;23.40;60.00
11239;DHT22;5677;48.488;13.436;2022-08-20T03:56:23;23.40;60.00
11239;DHT22;5677;48.488;13.436;2022-08-20T03:58:52;23.40;60.00
11239;DHT22;5677;48.488;13.436;2022-08-20T04:01:22;23.50;60.10
11239;DHT22;5677;48.488;13.436;2022-08-20T04:03:52;23.50;60.10
11239;DHT22;5677;48.488;13.436;2022-08-20T04:06:20;23.40;59.90
11239;DHT22;5677;48.488;13.436;2022-08-20T04:08:48;23.40;60.00
11239;DHT22;5677;48.488;13.436;2022-08-20T04:11:19;23.40;59.90
11239;DHT22;5677;48.488;13.436;2022-08-20T04:13:47;23.40;60.00
11239;DHT22;5677;48.488;13.436;2022-08-20T04:16:15;23.40;60.00
11239;DHT22;5677;48.488;13.436;2022-08-20T04:18:44;23.50;60.00
11239;DHT22;5677;48.488;13.436;2022-08-20T04:21:15;23.40;59.90
11239;DHT22;5677;48.488;13.436;2022-08-20T04:23:44;23.40;59.90
11239;DHT22;5677;48.488;13.436;2022-08-20T04:26:12;23.40;59.90
11239;DHT22;5677;48.488;13.436;2022-08-20T04:28:41;23.40;59.90
11239;DHT22;5677;48.488;13.436;2022-08-20T04:31:09;23.40;60.00
11239;DHT22;5677;48.488;13.436;2022-08-20T04:33:39;23.40;60.10
11239;DHT22;5677;48.488;13.436;2022-08-20T04:36:09;23.40;60.00
11239;DHT22;5677;48.488;13.436;2022-08-20T04:38:39;23.40;60.00
11239;DHT22;5677;48.488;13.436;2022-08-20T04:41:08;23.40;60.00
11239;DHT22;5677;48.488;13.436;2022-08-20T04:43:36;23.40;60.00
11239;DHT22;5677;48.488;13.436;2022-08-20T04:46:06;23.40;60.00
11239;DHT22;5677;48.488;13.436;2022-08-20T04:48:36;23.40;60.00
11239;DHT22;5677;48.488;13.436;2022-08-20T04:51:09;23.40;60.00
11239;DHT22;5677;48.488;13.436;2022-08-20T04:53:41;23.40;60.00
11239;DHT22;5677;48.488;13.436;2022-08-20T04:56:11;23.40;60.00
11239;DHT22;5677;48.488;13.436;2022-08-20T04:58:39;23.40;60.10
11239;DHT22;5677;48.488;13.436;2022-08-20T05:01:13;23.40;60.10
11239;DHT22;5677;48.488;13.436;2022-08-20T05:03:42;23.40;60.00
11239;DHT22;5677;48.488;13.436;2022-08-20T05:06:12;23.40;60.00
11239;DHT22;5677;48.488;13.436;2022-08-20T05:08:44;23.40;60.10
11239;DHT22;5677;48.488;13.436;2022-08-20T05:11:13;23.40;60.00
11239;DHT22;5677;48.488;13.436;2022-08-20T05:13:41;23.40;60.00
11239;DHT22;5677;48.488;13.436;2022-08-20T05:16:10;23.40;60.00
11239;DHT22;5677;48.488;13.436;2022-08-20T05:18:39;23.40;59.90
11239;DHT22;5677;48.488;13.436;2022-08-20T05:21:09;23.40;60.00
11239;DHT22;5677;48.488;13.436;2022-08-20T05:23:38;23.40;60.00
11239;DHT22;5677;48.488;13.436;2022-08-20T05:26:10;23.40;59.90
11239;DHT22;5677;48.488;13.436;2022-08-20T05:28:41;23.40;60.00
11239;DHT22;5677;48.488;13.436;2022-08-20T05:31:10;23.40;60.00
11239;DHT22;5677;48.488;13.436;2022-08-20T05:33:40;23.40;59.90
11239;DHT22;5677;48.488;13.436;2022-08-20T05:36:08;23.40;60.00
11239;DHT22;5677;48.488;13.436;2022-08-20T05:38:38;23.30;59.90
11239;DHT22;5677;48.488;13.436;2022-08-20T05:41:06;23.40;59.90
11239;DHT22;5677;48.488;13.436;2022-08-20T05:43:37;23.30;59.90
11239;DHT22;5677;48.488;13.436;2022-08-20T05:46:06;23.40;59.90
11239;DHT22;5677;48.488;13.436;2022-08-20T05:48:35;23.30;59.90
11239;DHT22;5677;48.488;13.436;2022-08-20T05:51:04;23.40;59.90
11239;DHT22;5677;48.488;13.436;2022-08-20T05:53:33;23.30;60.60
11239;DHT22;5677;48.488;13.436;2022-08-20T05:56:03;23.30;59.90
11239;DHT22;5677;48.488;13.436;2022-08-20T05:58:32;23.30;59.80
11239;DHT22;5677;48.488;13.436;2022-08-20T06:01:03;23.30;59.80
11239;DHT22;5677;48.488;13.436;2022-08-20T06:03:33;23.30;59.80
11239;DHT22;5677;48.488;13.436;2022-08-20T06:06:18;23.40;59.80
11239;DHT22;5677;48.488;13.436;2022-08-20T06:08:47;23.30;58.80
11239;DHT22;5677;48.488;13.436;2022-08-20T06:11:15;23.30;58.40
11239;DHT22;5677;48.488;13.436;2022-08-20T06:13:43;23.20;58.20
11239;DHT22;5677;48.488;13.436;2022-08-20T06:16:14;23.20;58.50
11239;DHT22;5677;48.488;13.436;2022-08-20T06:18:42;23.20;58.60
11239;DHT22;5677;48.488;13.436;2022-08-20T06:21:11;23.10;58.60
11239;DHT22;5677;48.488;13.436;2022-08-20T06:23:39;23.10;59.20
11239;DHT22;5677;48.488;13.436;2022-08-20T06:26:08;23.00;59.10
11239;DHT22;5677;48.488;13.436;2022-08-20T06:28:40;23.10;59.40
11239;DHT22;5677;48.488;13.436;2022-08-20T06:31:09;23.00;59.50
11239;DHT22;5677;48.488;13.436;2022-08-20T06:33:39;23.00;59.50
11239;DHT22;5677;48.488;13.436;2022-08-20T06:36:08;23.00;59.60
11239;DHT22;5677;48.488;13.436;2022-08-20T06:38:36;23.00;60.00
11239;DHT22;5677;48.488;13.436;2022-08-20T06:41:05;23.00;60.40
11239;DHT22;5677;48.488;13.436;2022-08-20T06:43:34;23.00;60.70
11239;DHT22;5677;48.488;13.436;2022-08-20T06:46:03;23.00;60.80
11239;DHT22;5677;48.488;13.436;2022-08-20T06:48:32;23.00;60.40
11239;DHT22;5677;48.488;13.436;2022-08-20T06:51:03;23.00;60.00
11239;DHT22;5677;48.488;13.436;2022-08-20T06:53:32;22.90;59.80
11239;DHT22;5677;48.488;13.436;2022-08-20T06:56:01;23.00;59.70
11239;DHT22;5677;48.488;13.436;2022-08-20T06:58:30;23.00;59.80
11239;DHT22;5677;48.488;13.436;2022-08-20T07:00:59;22.90;60.20
11239;DHT22;5677;48.488;13.436;2022-08-20T07:03:27;22.90;60.20
11239;DHT22;5677;48.488;13.436;2022-08-20T07:05:55;22.90;60.10
11239;DHT22;5677;48.488;13.436;2022-08-20T07:08:26;22.90;60.10
11239;DHT22;5677;48.488;13.436;2022-08-20T07:10:55;22.90;60.20
11239;DHT22;5677;48.488;13.436;2022-08-20T07:13:24;22.90;60.40
11239;DHT22;5677;48.488;13.436;2022-08-20T07:15:53;22.90;60.40
11239;DHT22;5677;48.488;13.436;2022-08-20T07:18:22;22.90;60.40
11239;DHT22;5677;48.488;13.436;2022-08-20T07:20:51;22.90;60.80
11239;DHT22;5677;48.488;13.436;2022-08-20T07:23:25;22.90;61.00
11239;DHT22;5677;48.488;13.436;2022-08-20T07:25:56;22.90;61.00
11239;DHT22;5677;48.488;13.436;2022-08-20T07:28:27;22.90;60.90
11239;DHT22;5677;48.488;13.436;2022-08-20T07:30:57;22.90;61.10
11239;DHT22;5677;48.488;13.436;2022-08-20T07:33:39;22.90;61.30
11239;DHT22;5677;48.488;13.436;2022-08-20T07:36:08;22.90;61.40
11239;DHT22;5677;48.488;13.436;2022-08-20T07:38:39;22.90;61.50
11239;DHT22;5677;48.488;13.436;2022-08-20T07:41:10;22.90;61.40
11239;DHT22;5677;48.488;13.436;2022-08-20T07:43:41;22.90;61.70
11239;DHT22;5677;48.488;13.436;2022-08-20T07:46:12;22.90;61.80
11239;DHT22;5677;48.488;13.436;2022-08-20T07:48:45;22.90;61.90
11239;DHT22;5677;48.488;13.436;2022-08-20T07:51:16;22.90;61.80
11239;DHT22;5677;48.488;13.436;2022-08-20T07:53:50;22.80;61.30
11239;DHT22;5677;48.488;13.436;2022-08-20T07:56:21;22.80;60.90
11239;DHT22;5677;48.488;13.436;2022-08-20T07:58:53;22.80;60.90
11239;DHT22;5677;48.488;13.436;2022-08-20T08:01:26;22.80;60.90
11239;DHT22;5677;48.488;13.436;2022-08-20T08:03:57;22.80;60.20
11239;DHT22;5677;48.488;13.436;2022-08-20T08:06:26;22.70;60.10
11239;DHT22;5677;48.488;13.436;2022-08-20T08:09:02;22.70;60.30
11239;DHT22;5677;48.488;13.436;2022-08-20T08:11:36;22.70;60.10
11239;DHT22;5677;48.488;13.436;2022-08-20T08:14:07;22.60;60.00
11239;DHT22;5677;48.488;13.436;2022-08-20T08:16:38;22.60;60.20
11239;DHT22;5677;48.488;13.436;2022-08-20T08:19:11;22.50;60.60
11239;DHT22;5677;48.488;13.436;2022-08-20T08:21:43;22.50;61.10
11239;DHT22;5677;48.488;13.436;2022-08-20T08:24:13;22.50;61.30
11239;DHT22;5677;48.488;13.436;2022-08-20T08:26:43;22.60;61.30
11239;DHT22;5677;48.488;13.436;2022-08-20T08:29:15;22.60;61.30
11239;DHT22;5677;48.488;13.436;2022-08-20T08:31:44;22.60;61.10
11239;DHT22;5677;48.488;13.436;2022-08-20T08:34:12;22.70;61.00
11239;DHT22;5677;48.488;13.436;2022-08-20T08:36:42;22.70;60.90
11239;DHT22;5677;48.488;13.436;2022-08-20T08:39:12;22.70;60.80
11239;DHT22;5677;48.488;13.436;2022-08-20T08:41:42;22.70;60.70
11239;DHT22;5677;48.488;13.436;2022-08-20T08:44:18;22.80;60.60
11239;DHT22;5677;48.488;13.436;2022-08-20T08:46:52;22.80;60.60
11239;DHT22;5677;48.488;13.436;2022-08-20T08:49:26;22.80;60.50
11239;DHT22;5677;48.488;13.436;2022-08-20T08:52:02;22.80;60.40
11239;DHT22;5677;48.488;13.436;2022-08-20T08:54:42;22.90;60.40
11239;DHT22;5677;48.488;13.436;2022-08-20T08:57:13;22.80;60.30
11239;DHT22;5677;48.488;13.436;2022-08-20T08:59:44;22.90;60.70
11239;DHT22;5677;48.488;13.436;2022-08-20T09:02:22;22.90;61.20
11239;DHT22;5677;48.488;13.436;2022-08-20T09:04:54;22.90;61.40
11239;DHT22;5677;48.488;13.436;2022-08-20T09:07:30;22.90;61.90
11239;DHT22;5677;48.488;13.436;2022-08-20T09:10:02;22.90;61.90
11239;DHT22;5677;48.488;13.436;2022-08-20T09:12:33;22.90;62.10
11239;DHT22;5677;48.488;13.436;2022-08-20T09:15:02;23.00;61.90
11239;DHT22;5677;48.488;13.436;2022-08-20T09:17:31;23.00;61.50
11239;DHT22;5677;48.488;13.436;2022-08-20T09:20:00;23.00;61.40
11239;DHT22;5677;48.488;13.436;2022-08-20T09:22:28;22.90;61.40
11239;DHT22;5677;48.488;13.436;2022-08-20T09:24:58;22.90;61.50
11239;DHT22;5677;48.488;13.436;2022-08-20T09:27:29;22.90;61.60
11239;DHT22;5677;48.488;13.436;2022-08-20T09:29:58;22.90;61.60
11239;DHT22;5677;48.488;13.436;2022-08-20T09:32:27;22.80;61.60
11239;DHT22;5677;48.488;13.436;2022-08-20T09:34:55;22.80;61.70
11239;DHT22;5677;48.488;13.436;2022-08-20T09:37:27;22.80;62.60
11239;DHT22;5677;48.488;13.436;2022-08-20T09:39:58;22.80;61.90
11239;DHT22;5677;48.488;13.436;2022-08-20T09:42:31;22.80;61.80
11239;DHT22;5677;48.488;13.436;2022-08-20T09:45:00;22.80;62.00
11239;DHT22;5677;48.488;13.436;2022-08-20T09:47:29;22.80;62.10
11239;DHT22;5677;48.488;13.436;2022-08-20T09:49:58;22.80;61.90
11239;DHT22;5677;48.488;13.436;2022-08-20T09:52:28;22.80;61.80
11239;DHT22;5677;48.488;13.436;2022-08-20T09:55:03;22.80;61.70
11239;DHT22;5677;48.488;13.436;2022-08-20T09:57:40;22.80;61.70
11239;DHT22;5677;48.488;13.436;2022-08-20T10:00:09;22.80;61.90
11239;DHT22;5677;48.488;13.436;2022-08-20T10:02:39;22.80;62.10
11239;DHT22;5677;48.488;13.436;2022-08-20T10:05:09;22.80;62.40
11239;DHT22;5677;48.488;13.436;2022-08-20T10:07:38;22.80;62.40
11239;DHT22;5677;48.488;13.436;2022-08-20T10:10:12;22.80;61.80
11239;DHT22;5677;48.488;13.436;2022-08-20T10:12:42;22.70;61.70
11239;DHT22;5677;48.488;13.436;2022-08-20T10:15:11;22.70;61.90
11239;DHT22;5677;48.488;13.436;2022-08-20T10:17:41;22.70;62.20
11239;DHT22;5677;48.488;13.436;2022-08-20T10:20:12;22.70;62.30
11239;DHT22;5677;48.488;13.436;2022-08-20T10:22:41;22.70;62.60
11239;DHT22;5677;48.488;13.436;2022-08-20T10:25:11;22.70;62.70
11239;DHT22;5677;48.488;13.436;2022-08-20T10:27:41;22.80;62.70
11239;DHT22;5677;48.488;13.436;2022-08-20T10:30:11;22.70;62.70
11239;DHT22;5677;48.488;13.436;2022-08-20T10:32:40;22.80;62.40
11239;DHT22;5677;48.488;13.436;2022-08-20T10:35:08;22.70;61.20
11239;DHT22;5677;48.488;13.436;2022-08-20T10:37:37;22.70;61.40
11239;DHT22;5677;48.488;13.436;2022-08-20T10:40:07;22.70;61.50
11239;DHT22;5677;48.488;13.436;2022-08-20T10:42:40;22.80;61.40
11239;DHT22;5677;48.488;13.436;2022-08-20T10:45:10;22.80;61.40
11239;DHT22;5677;48.488;13.436;2022-08-20T10:47:39;22.80;61.20
11239;DHT22;5677;48.488;13.436;2022-08-20T10:50:10;22.80;61.20
11239;DHT22;5677;48.488;13.436;2022-08-20T10:52:40;22.80;61.20
11239;DHT22;5677;48.488;13.436;2022-08-20T10:55:11;22.80;61.10
11239;DHT22;5677;48.488;13.436;2022-08-20T10:57:41;22.80;61.10
11239;DHT22;5677;48.488;13.436;2022-08-20T11:00:11;22.80;61.00
11239;DHT22;5677;48.488;13.436;2022-08-20T11:02:42;22.90;61.20
11239;DHT22;5677;48.488;13.436;2022-08-20T11:05:11;22.80;61.00
11239;DHT22;5677;48.488;13.436;2022-08-20T11:07:41;22.90;61.20
11239;DHT22;5677;48.488;13.436;2022-08-20T11:10:13;22.90;61.20
11239;DHT22;5677;48.488;13.436;2022-08-20T11:12:42;22.80;61.00
11239;DHT22;5677;48.488;13.436;2022-08-20T11:15:11;22.80;60.90
11239;DHT22;5677;48.488;13.436;2022-08-20T11:17:42;22.90;61.00
11239;DHT22;5677;48.488;13.436;2022-08-20T11:20:12;22.90;61.00
11239;DHT22;5677;48.488;13.436;2022-08-20T11:22:43;22.90;60.90
11239;DHT22;5677;48.488;13.436;2022-08-20T11:25:13;22.90;60.90
11239;DHT22;5677;48.488;13.436;2022-08-20T11:27:44;22.90;60.90
11239;DHT22;5677;48.488;13.436;2022-08-20T11:30:16;22.90;60.80
11239;DHT22;5677;48.488;13.436;2022-08-20T11:32:47;22.90;60.80
11239;DHT22;5677;48.488;13.436;2022-08-20T11:35:17;22.90;61.60
11239;DHT22;5677;48.488;13.436;2022-08-20T11:37:46;22.90;60.70
11239;DHT22;5677;48.488;13.436;2022-08-20T11:40:17;22.90;60.70
11239;DHT22;5677;48.488;13.436;2022-08-20T11:42:45;22.90;60.70
11239;DHT22;5677;48.488;13.436;2022-08-20T11:45:15;22.90;60.70
11239;DHT22;5677;48.488;13.436;2022-08-20T11:47:44;22.90;60.60
11239;DHT22;5677;48.488;13.436;2022-08-20T11:50:15;22.90;60.60
11239;DHT22;5677;48.488;13.436;2022-08-20T11:52:46;22.90;60.60
11239;DHT22;5677;48.488;13.436;2022-08-20T11:55:16;22.90;60.50
11239;DHT22;5677;48.488;13.436;2022-08-20T11:57:47;22.90;60.50
11239;DHT22;5677;48.488;13.436;2022-08-20T12:00:19;22.90;60.60
11239;DHT22;5677;48.488;13.436;2022-08-20T12:02:49;22.90;60.50
11239;DHT22;5677;48.488;13.436;2022-08-20T12:05:18;22.90;60.50
11239;DHT22;5677;48.488;13.436;2022-08-20T12:07:47;22.90;60.50
11239;DHT22;5677;48.488;13.436;2022-08-20T12:10:18;22.90;60.50
11239;DHT22;5677;48.488;13.436;2022-08-20T12:12:48;22.90;60.50
11239;DHT22;5677;48.488;13.436;2022-08-20T12:15:17;22.90;60.50
11239;DHT22;5677;48.488;13.436;2022-08-20T12:17:46;22.90;60.50
11239;DHT22;5677;48.488;13.436;2022-08-20T12:20:15;22.90;60.50
11239;DHT22;5677;48.488;13.436;2022-08-20T12:22:43;22.90;60.40
11239;DHT22;5677;48.488;13.436;2022-08-20T12:25:12;22.90;60.50
11239;DHT22;5677;48.488;13.436;2022-08-20T12:27:44;22.90;60.40
11239;DHT22;5677;48.488;13.436;2022-08-20T12:30:15;22.90;60.40
11239;DHT22;5677;48.488;13.436;2022-08-20T12:32:46;22.90;60.40
11239;DHT22;5677;48.488;13.436;2022-08-20T12:35:16;22.90;60.40
11239;DHT22;5677;48.488;13.436;2022-08-20T12:37:46;22.90;60.40
11239;DHT22;5677;48.488;13.436;2022-08-20T12:40:18;22.90;60.30
11239;DHT22;5677;48.488;13.436;2022-08-20T12:42:51;22.90;60.30
11239;DHT22;5677;48.488;13.436;2022-08-20T12:45:20;22.90;60.40
11239;DHT22;5677;48.488;13.436;2022-08-20T12:47:48;22.90;60.30
11239;DHT22;5677;48.488;13.436;2022-08-20T12:50:19;22.90;60.30
11239;DHT22;5677;48.488;13.436;2022-08-20T12:52:49;23.00;60.30
11239;DHT22;5677;48.488;13.436;2022-08-20T12:55:19;23.00;60.20
11239;DHT22;5677;48.488;13.436;2022-08-20T12:57:51;22.90;60.20
11239;DHT22;5677;48.488;13.436;2022-08-20T13:00:24;22.90;60.20
11239;DHT22;5677;48.488;13.436;2022-08-20T13:02:56;22.90;60.20
11239;DHT22;5677;48.488;13.436;2022-08-20T13:05:26;23.00;60.20
11239;DHT22;5677;48.488;13.436;2022-08-20T13:07:56;22.90;60.20
11239;DHT22;5677;48.488;13.436;2022-08-20T13:10:27;23.00;60.20
11239;DHT22;5677;48.488;13.436;2022-08-20T13:13:00;22.90;60.20
11239;DHT22;5677;48.488;13.436;2022-08-20T13:15:29;22.90;60.20
11239;DHT22;5677;48.488;13.436;2022-08-20T13:18:00;22.90;60.20
11239;DHT22;5677;48.488;13.436;2022-08-20T13:20:30;22.90;60.20
11239;DHT22;5677;48.488;13.436;2022-08-20T13:22:59;22.90;60.10
11239;DHT22;5677;48.488;13.436;2022-08-20T13:25:27;22.90;60.20
11239;DHT22;5677;48.488;13.436;2022-08-20T13:27:57;22.90;60.20
11239;DHT22;5677;48.488;13.436;2022-08-20T13:30:30;22.90;60.10
11239;DHT22;5677;48.488;13.436;2022-08-20T13:33:00;23.00;60.10
11239;DHT22;5677;48.488;13.436;2022-08-20T13:35:29;22.90;60.10
11239;DHT22;5677;48.488;13.436;2022-08-20T13:37:58;22.90;60.10
11239;DHT22;5677;48.488;13.436;2022-08-20T13:40:27;23.00;60.10
11239;DHT22;5677;48.488;13.436;2022-08-20T13:42:56;22.90;60.10
11239;DHT22;5677;48.488;13.436;2022-08-20T13:45:26;23.00;60.00
11239;DHT22;5677;48.488;13.436;2022-08-20T13:47:55;22.90;60.00
11239;DHT22;5677;48.488;13.436;2022-08-20T13:50:24;23.00;60.00
11239;DHT22;5677;48.488;13.436;2022-08-20T13:52:54;22.90;60.00
11239;DHT22;5677;48.488;13.436;2022-08-20T13:55:26;22.90;60.00
11239;DHT22;5677;48.488;13.436;2022-08-20T13:57:56;22.90;59.90
11239;DHT22;5677;48.488;13.436;2022-08-20T14:00:28;22.90;59.90
11239;DHT22;5677;48.488;13.436;2022-08-20T14:02:58;22.90;59.90
11239;DHT22;5677;48.488;13.436;2022-08-20T14:05:28;22.90;59.90
11239;DHT22;5677;48.488;13.436;2022-08-20T14:08:04;22.90;59.90
11239;DHT22;5677;48.488;13.436;2022-08-20T14:10:35;23.00;59.90
11239;DHT22;5677;48.488;13.436;2022-08-20T14:13:03;22.90;59.90
11239;DHT22;5677;48.488;13.436;2022-08-20T14:15:35;22.90;60.30
11239;DHT22;5677;48.488;13.436;2022-08-20T14:18:04;22.90;60.30
11239;DHT22;5677;48.488;13.436;2022-08-20T14:20:33;22.90;60.30
11239;DHT22;5677;48.488;13.436;2022-08-20T14:23:03;22.90;60.40
11239;DHT22;5677;48.488;13.436;2022-08-20T14:25:33;22.90;60.80
11239;DHT22;5677;48.488;13.436;2022-08-20T14:28:13;22.90;61.20
11239;DHT22;5677;48.488;13.436;2022-08-20T14:30:46;22.90;61.70
11239;DHT22;5677;48.488;13.436;2022-08-20T14:33:15;22.90;61.90
11239;DHT22;5677;48.488;13.436;2022-08-20T14:35:43;22.90;62.00
11239;DHT22;5677;48.488;13.436;2022-08-20T14:38:12;22.80;61.80
11239;DHT22;5677;48.488;13.436;2022-08-20T14:40:41;22.80;61.90
11239;DHT22;5677;48.488;13.436;2022-08-20T14:43:09;22.80;62.20
11239;DHT22;5677;48.488;13.436;2022-08-20T14:45:38;22.80;62.40
11239;DHT22;5677;48.488;13.436;2022-08-20T14:48:08;22.80;62.70
11239;DHT22;5677;48.488;13.436;2022-08-20T14:50:37;22.80;62.60
11239;DHT22;5677;48.488;13.436;2022-08-20T14:53:05;22.80;62.80
11239;DHT22;5677;48.488;13.436;2022-08-20T14:55:36;22.80;62.80
11239;DHT22;5677;48.488;13.436;2022-08-20T14:58:08;22.80;63.00
11239;DHT22;5677;48.488;13.436;2022-08-20T15:00:39;22.80;63.20
11239;DHT22;5677;48.488;13.436;2022-08-20T15:03:10;22.80;63.50
11239;DHT22;5677;48.488;13.436;2022-08-20T15:05:39;22.80;63.50
11239;DHT22;5677;48.488;13.436;2022-08-20T15:08:08;22.80;63.90
11239;DHT22;5677;48.488;13.436;2022-08-20T15:10:37;22.80;64.10
11239;DHT22;5677;48.488;13.436;2022-08-20T15:13:06;22.80;64.20
11239;DHT22;5677;48.488;13.436;2022-08-20T15:15:35;22.80;64.20
11239;DHT22;5677;48.488;13.436;2022-08-20T15:18:05;22.80;64.40
11239;DHT22;5677;48.488;13.436;2022-08-20T15:20:37;22.80;64.20
11239;DHT22;5677;48.488;13.436;2022-08-20T15:23:05;22.80;64.30
11239;DHT22;5677;48.488;13.436;2022-08-20T15:25:35;22.80;64.50
11239;DHT22;5677;48.488;13.436;2022-08-20T15:28:05;22.80;64.70
11239;DHT22;5677;48.488;13.436;2022-08-20T15:30:36;22.80;64.80
11239;DHT22;5677;48.488;13.436;2022-08-20T15:33:07;22.80;64.90
11239;DHT22;5677;48.488;13.436;2022-08-20T15:35:38;22.80;64.80
11239;DHT22;5677;48.488;13.436;2022-08-20T15:38:07;22.80;64.60
11239;DHT22;5677;48.488;13.436;2022-08-20T15:40:35;22.80;64.80
11239;DHT22;5677;48.488;13.436;2022-08-20T15:43:04;22.80;64.60
11239;DHT22;5677;48.488;13.436;2022-08-20T15:45:34;22.80;64.60
11239;DHT22;5677;48.488;13.436;2022-08-20T15:48:09;22.80;64.40
11239;DHT22;5677;48.488;13.436;2022-08-20T15:50:53;22.90;64.40